sensor_id;sensor_type;location;lat;lon;timestamp;pressure;altitude;pressure_sealevel;temperature;humidity
25238;BME280;13185;50.872;5.306;2023-04-01T00:02:17;99066.81;;;9.11;100.00
25238;BME280;13185;50.872;5.306;2023-04-01T00:04:43;99074.69;;;9.13;100.00
25238;BME280;13185;50.872;5.306;2023-04-01T00:07:09;99063.44;;;9.09;100.00
25238;BME280;13185;50.872;5.306;2023-04-01T00:09:35;99066.09;;;9.09;100.00
25238;BME280;13185;50.872;5.306;2023-04-01T00:12:01;99064.28;;;9.10;100.00
25238;BME280;13185;50.872;5.306;2023-04-01T00:14:26;99066.94;;;9.10;100.00
25238;BME280;13185;50.872;5.306;2023-04-01T00:16:52;99061.59;;;9.10;100.00
25238;BME280;13185;50.872;5.306;2023-04-01T00:19:18;99068.50;;;9.12;100.00
25238;BME280;13185;50.872;5.306;2023-04-01T00:21:43;99063.28;;;9.11;100.00
25238;BME280;13185;50.872;5.306;2023-04-01T00:24:09;99062.72;;;9.07;100.00
25238;BME280;13185;50.872;5.306;2023-04-01T00:26:35;99070.84;;;9.06;100.00
25238;BME280;13185;50.872;5.306;2023-04-01T00:29:00;99061.13;;;9.05;100.00
25238;BME280;13185;50.872;5.306;2023-04-01T00:31:26;99063.66;;;9.06;100.00
25238;BME280;13185;50.872;5.306;2023-04-01T00:33:52;99053.84;;;9.07;100.00
25238;BME280;13185;50.872;5.306;2023-04-01T00:36:20;99064.53;;;9.07;100.00
25238;BME280;13185;50.872;5.306;2023-04-01T00:38:47;99068.19;;;9.06;100.00
25238;BME280;13185;50.872;5.306;2023-04-01T00:41:13;99059.31;;;9.05;100.00
25238;BME280;13185;50.872;5.306;2023-04-01T00:43:41;99071.59;;;9.08;100.00
25238;BME280;13185;50.872;5.306;2023-04-01T00:46:07;99068.19;;;9.06;100.00
25238;BME280;13185;50.872;5.306;2023-04-01T00:48:35;99062.97;;;9.04;100.00
25238;BME280;13185;50.872;5.306;2023-04-01T00:51:06;99052.41;;;9.03;100.00
25238;BME280;13185;50.872;5.306;2023-04-01T00:53:34;99054.09;;;9.04;100.00
25238;BME280;13185;50.872;5.306;2023-04-01T00:56:09;99053.25;;;9.03;100.00
25238;BME280;13185;50.872;5.306;2023-04-01T00:58:40;99056.78;;;9.04;100.00
25238;BME280;13185;50.872;5.306;2023-04-01T01:01:08;99048.75;;;9.04;100.00
25238;BME280;13185;50.872;5.306;2023-04-01T01:03:35;99055.09;;;9.03;100.00
25238;BME280;13185;50.872;5.306;2023-04-01T01:06:35;99054.94;;;9.04;100.00
25238;BME280;13185;50.872;5.306;2023-04-01T01:12:16;99056.78;;;9.04;100.00
25238;BME280;13185;50.872;5.306;2023-04-01T01:17:44;99068.19;;;9.06;100.00
25238;BME280;13185;50.872;5.306;2023-04-01T01:23:09;99063.25;;;9.01;100.00
25238;BME280;13185;50.872;5.306;2023-04-01T01:31:54;99066.75;;;9.02;100.00
25238;BME280;13185;50.872;5.306;2023-04-01T01:34:36;99060.69;;;9.00;100.00
25238;BME280;13185;50.872;5.306;2023-04-01T01:37:10;99068.72;;;9.00;100.00
25238;BME280;13185;50.872;5.306;2023-04-01T01:39:36;99065.19;;;8.99;100.00
25238;BME280;13185;50.872;5.306;2023-04-01T01:42:05;99065.19;;;8.99;100.00
25238;BME280;13185;50.872;5.306;2023-04-01T01:44:33;99069.56;;;9.00;100.00
25238;BME280;13185;50.872;5.306;2023-04-01T01:47:00;99074.06;;;9.00;100.00
25238;BME280;13185;50.872;5.306;2023-04-01T01:49:28;99073.22;;;8.99;100.00
25238;BME280;13185;50.872;5.306;2023-04-01T01:51:56;99076.88;;;8.98;100.00
25238;BME280;13185;50.872;5.306;2023-04-01T01:54:22;99085.88;;;8.97;100.00
25238;BME280;13185;50.872;5.306;2023-04-01T01:56:51;99085.03;;;8.96;100.00
25238;BME280;13185;50.872;5.306;2023-04-01T01:59:23;99083.31;;;8.95;100.00
25238;BME280;13185;50.872;5.306;2023-04-01T02:01:52;99087.81;;;8.95;100.00
25238;BME280;13185;50.872;5.306;2023-04-01T02:04:21;99091.34;;;8.95;100.00
25238;BME280;13185;50.872;5.306;2023-04-01T02:06:54;99096.69;;;8.95;100.00
25238;BME280;13185;50.872;5.306;2023-04-01T02:09:21;99099.34;;;8.95;100.00
25238;BME280;13185;50.872;5.306;2023-04-01T02:11:59;99089.78;;;8.93;100.00
25238;BME280;13185;50.872;5.306;2023-04-01T02:17:24;99087.13;;;8.93;100.00
25238;BME280;13185;50.872;5.306;2023-04-01T02:22:26;99102.03;;;8.95;100.00
25238;BME280;13185;50.872;5.306;2023-04-01T02:24:56;99103.84;;;8.95;100.00
25238;BME280;13185;50.872;5.306;2023-04-01T02:27:23;99095.72;;;8.96;100.00
25238;BME280;13185;50.872;5.306;2023-04-01T02:29:50;99104.72;;;8.95;100.00
25238;BME280;13185;50.872;5.306;2023-04-01T02:32:18;99098.78;;;8.92;100.00
25238;BME280;13185;50.872;5.306;2023-04-01T02:34:45;99109.34;;;8.93;100.00
25238;BME280;13185;50.872;5.306;2023-04-01T02:37:12;99104.00;;;8.93;100.00
25238;BME280;13185;50.872;5.306;2023-04-01T02:39:39;99102.16;;;8.94;100.00
25238;BME280;13185;50.872;5.306;2023-04-01T02:42:05;99116.25;;;8.96;100.00
25238;BME280;13185;50.872;5.306;2023-04-01T02:44:31;99113.56;;;8.96;100.00
25238;BME280;13185;50.872;5.306;2023-04-01T02:46:57;99108.22;;;8.96;100.00
25238;BME280;13185;50.872;5.306;2023-04-01T02:49:22;99109.81;;;8.99;100.00
25238;BME280;13185;50.872;5.306;2023-04-01T02:51:48;99119.66;;;8.98;100.00
25238;BME280;13185;50.872;5.306;2023-04-01T02:54:14;99104.84;;;8.94;100.00
25238;BME280;13185;50.872;5.306;2023-04-01T02:56:39;99116.38;;;8.94;100.00
25238;BME280;13185;50.872;5.306;2023-04-01T02:59:05;99107.38;;;8.95;100.00
25238;BME280;13185;50.872;5.306;2023-04-01T03:01:30;99115.41;;;8.95;100.00
25238;BME280;13185;50.872;5.306;2023-04-01T03:03:56;99118.06;;;8.95;100.00
25238;BME280;13185;50.872;5.306;2023-04-01T03:06:21;99119.91;;;8.95;100.00
25238;BME280;13185;50.872;5.306;2023-04-01T03:08:47;99118.22;;;8.94;100.00
25238;BME280;13185;50.872;5.306;2023-04-01T03:11:13;99129.75;;;8.94;100.00
25238;BME280;13185;50.872;5.306;2023-04-01T03:13:39;99131.72;;;8.92;100.00
25238;BME280;13185;50.872;5.306;2023-04-01T03:16:05;99146.06;;;8.91;100.00
25238;BME280;13185;50.872;5.306;2023-04-01T03:18:30;99138.88;;;8.92;100.00
25238;BME280;13185;50.872;5.306;2023-04-01T03:20:57;99145.22;;;8.91;100.00
25238;BME280;13185;50.872;5.306;2023-04-01T03:23:22;99140.00;;;8.89;100.00
25238;BME280;13185;50.872;5.306;2023-04-01T03:25:50;99148.75;;;8.91;100.00
25238;BME280;13185;50.872;5.306;2023-04-01T03:28:15;99153.25;;;8.91;100.00
25238;BME280;13185;50.872;5.306;2023-04-01T03:30:41;99156.75;;;8.91;100.00
25238;BME280;13185;50.872;5.306;2023-04-01T03:33:08;99144.63;;;8.87;100.00
25238;BME280;13185;50.872;5.306;2023-04-01T03:35:33;99146.34;;;8.88;100.00
25238;BME280;13185;50.872;5.306;2023-04-01T03:38:01;99152.53;;;8.89;100.00
25238;BME280;13185;50.872;5.306;2023-04-01T03:40:27;99153.50;;;8.88;100.00
25238;BME280;13185;50.872;5.306;2023-04-01T03:42:53;99152.53;;;8.89;100.00
25238;BME280;13185;50.872;5.306;2023-04-01T03:45:18;99158.72;;;8.89;100.00
25238;BME280;13185;50.872;5.306;2023-04-01T03:47:44;99162.38;;;8.88;100.00
25238;BME280;13185;50.872;5.306;2023-04-01T03:50:10;99158.84;;;8.88;100.00
25238;BME280;13185;50.872;5.306;2023-04-01T03:52:35;99161.91;;;8.83;100.00
25238;BME280;13185;50.872;5.306;2023-04-01T03:55:01;99160.19;;;8.82;100.00
25238;BME280;13185;50.872;5.306;2023-04-01T03:57:27;99165.69;;;8.81;100.00
25238;BME280;13185;50.872;5.306;2023-04-01T03:59:59;99184.53;;;8.79;100.00
25238;BME280;13185;50.872;5.306;2023-04-01T04:02:25;99167.78;;;8.77;100.00
25238;BME280;13185;50.872;5.306;2023-04-01T04:04:51;99165.09;;;8.77;100.00
25238;BME280;13185;50.872;5.306;2023-04-01T04:07:17;99175.94;;;8.76;100.00
25238;BME280;13185;50.872;5.306;2023-04-01T04:09:59;99172.38;;;8.75;100.00
25238;BME280;13185;50.872;5.306;2023-04-01T04:12:24;99178.69;;;8.74;100.00
25238;BME280;13185;50.872;5.306;2023-04-01T04:14:50;99181.50;;;8.73;100.00
25238;BME280;13185;50.872;5.306;2023-04-01T04:17:15;99186.84;;;8.73;100.00
25238;BME280;13185;50.872;5.306;2023-04-01T04:19:42;99192.34;;;8.71;100.00
25238;BME280;13185;50.872;5.306;2023-04-01T04:22:08;99196.97;;;8.69;100.00
25238;BME280;13185;50.872;5.306;2023-04-01T04:24:36;99196.84;;;8.71;100.00
25238;BME280;13185;50.872;5.306;2023-04-01T04:27:07;99198.66;;;8.70;100.00
25238;BME280;13185;50.872;5.306;2023-04-01T04:29:36;99200.34;;;8.71;100.00
25238;BME280;13185;50.872;5.306;2023-04-01T04:32:01;99201.34;;;8.70;100.00
25238;BME280;13185;50.872;5.306;2023-04-01T04:34:28;99211.03;;;8.71;100.00
25238;BME280;13185;50.872;5.306;2023-04-01T04:36:53;99204.00;;;8.70;100.00
25238;BME280;13185;50.872;5.306;2023-04-01T04:39:22;99211.88;;;8.72;100.00
25238;BME280;13185;50.872;5.306;2023-04-01T04:41:48;99211.03;;;8.71;100.00
25238;BME280;13185;50.872;5.306;2023-04-01T04:44:14;99205.69;;;8.71;100.00
25238;BME280;13185;50.872;5.306;2023-04-01T04:46:40;99209.09;;;8.73;100.00
25238;BME280;13185;50.872;5.306;2023-04-01T04:49:12;99213.44;;;8.74;100.00
25238;BME280;13185;50.872;5.306;2023-04-01T04:51:38;99224.41;;;8.71;100.00
25238;BME280;13185;50.872;5.306;2023-04-01T04:54:04;99216.38;;;8.71;100.00
25238;BME280;13185;50.872;5.306;2023-04-01T04:56:53;99221.72;;;8.71;100.00
25238;BME280;13185;50.872;5.306;2023-04-01T04:59:19;99233.13;;;8.73;100.00
25238;BME280;13185;50.872;5.306;2023-04-01T05:01:56;99233.41;;;8.70;100.00
25238;BME280;13185;50.872;5.306;2023-04-01T05:04:21;99228.91;;;8.71;100.00
25238;BME280;13185;50.872;5.306;2023-04-01T05:06:47;99246.63;;;8.72;100.00
25238;BME280;13185;50.872;5.306;2023-04-01T05:09:13;99244.09;;;8.70;100.00
25238;BME280;13185;50.872;5.306;2023-04-01T05:11:40;99247.63;;;8.71;100.00
25238;BME280;13185;50.872;5.306;2023-04-01T05:14:06;99250.28;;;8.71;100.00
25238;BME280;13185;50.872;5.306;2023-04-01T05:16:35;99242.25;;;8.71;100.00
25238;BME280;13185;50.872;5.306;2023-04-01T05:19:00;99252.97;;;8.71;100.00
25238;BME280;13185;50.872;5.306;2023-04-01T05:21:26;99244.09;;;8.70;100.00
25238;BME280;13185;50.872;5.306;2023-04-01T05:23:53;99253.09;;;8.69;100.00
25238;BME280;13185;50.872;5.306;2023-04-01T05:26:18;99262.09;;;8.68;100.00
25238;BME280;13185;50.872;5.306;2023-04-01T05:28:44;99259.41;;;8.68;100.00
25238;BME280;13185;50.872;5.306;2023-04-01T05:31:10;99248.00;;;8.66;100.00
25238;BME280;13185;50.872;5.306;2023-04-01T05:33:41;99268.53;;;8.65;100.00
25238;BME280;13185;50.872;5.306;2023-04-01T05:36:11;99257.00;;;8.65;100.00
25238;BME280;13185;50.872;5.306;2023-04-01T05:38:37;99266.81;;;8.64;100.00
25238;BME280;13185;50.872;5.306;2023-04-01T05:41:05;99278.25;;;8.66;100.00
25238;BME280;13185;50.872;5.306;2023-04-01T05:43:38;99285.41;;;8.66;100.00
25238;BME280;13185;50.872;5.306;2023-04-01T05:46:24;99284.56;;;8.65;100.00
25238;BME280;13185;50.872;5.306;2023-04-01T05:48:57;99287.34;;;8.64;100.00
25238;BME280;13185;50.872;5.306;2023-04-01T05:51:24;99286.41;;;8.65;100.00
25238;BME280;13185;50.872;5.306;2023-04-01T05:53:49;99288.94;;;8.66;100.00
25238;BME280;13185;50.872;5.306;2023-04-01T05:56:16;99299.63;;;8.66;100.00
25238;BME280;13185;50.872;5.306;2023-04-01T05:58:50;99287.25;;;8.65;100.00
25238;BME280;13185;50.872;5.306;2023-04-01T06:01:17;99292.59;;;8.65;100.00
25238;BME280;13185;50.872;5.306;2023-04-01T06:03:44;99294.41;;;8.65;100.00
25238;BME280;13185;50.872;5.306;2023-04-01T06:06:30;99301.69;;;8.63;100.00
25238;BME280;13185;50.872;5.306;2023-04-01T06:09:15;99306.91;;;8.64;100.00
25238;BME280;13185;50.872;5.306;2023-04-01T06:14:52;99316.88;;;8.62;100.00
25238;BME280;13185;50.872;5.306;2023-04-01T06:31:11;99340.91;;;8.62;100.00
25238;BME280;13185;50.872;5.306;2023-04-01T06:58:13;99362.66;;;8.69;100.00
25238;BME280;13185;50.872;5.306;2023-04-01T07:00:46;99372.50;;;8.68;100.00
25238;BME280;13185;50.872;5.306;2023-04-01T07:03:33;99382.34;;;8.68;100.00
25238;BME280;13185;50.872;5.306;2023-04-01T07:06:05;99377.97;;;8.67;100.00
25238;BME280;13185;50.872;5.306;2023-04-01T07:08:40;99372.50;;;8.68;100.00
25238;BME280;13185;50.872;5.306;2023-04-01T07:11:26;99396.44;;;8.70;100.00
25238;BME280;13185;50.872;5.306;2023-04-01T07:17:02;99391.94;;;8.71;100.00
25238;BME280;13185;50.872;5.306;2023-04-01T07:19:46;99402.63;;;8.71;100.00
25238;BME280;13185;50.872;5.306;2023-04-01T07:22:27;99394.75;;;8.69;100.00
25238;BME280;13185;50.872;5.306;2023-04-01T07:25:16;99406.16;;;8.71;100.00
25238;BME280;13185;50.872;5.306;2023-04-01T07:27:46;99404.31;;;8.72;100.00
25238;BME280;13185;50.872;5.306;2023-04-01T07:30:21;99408.81;;;8.71;100.00
25238;BME280;13185;50.872;5.306;2023-04-01T07:35:23;99423.88;;;8.72;100.00
25238;BME280;13185;50.872;5.306;2023-04-01T07:41:07;99427.78;;;8.68;100.00
25238;BME280;13185;50.872;5.306;2023-04-01T07:44:08;99425.97;;;8.68;100.00
25238;BME280;13185;50.872;5.306;2023-04-01T07:46:59;99431.19;;;8.70;100.00
25238;BME280;13185;50.872;5.306;2023-04-01T07:52:31;99449.78;;;8.72;100.00
25238;BME280;13185;50.872;5.306;2023-04-01T07:55:19;99451.72;;;8.70;100.00
25238;BME280;13185;50.872;5.306;2023-04-01T07:58:15;99447.09;;;8.72;100.00
25238;BME280;13185;50.872;5.306;2023-04-01T08:04:33;99454.13;;;8.73;100.00
25238;BME280;13185;50.872;5.306;2023-04-01T08:07:05;99462.03;;;8.74;100.00
25238;BME280;13185;50.872;5.306;2023-04-01T08:21:32;99478.56;;;8.79;100.00
25238;BME280;13185;50.872;5.306;2023-04-01T08:24:22;99488.75;;;8.85;100.00
25238;BME280;13185;50.872;5.306;2023-04-01T08:26:53;99495.94;;;8.85;100.00
25238;BME280;13185;50.872;5.306;2023-04-01T08:29:25;99479.53;;;8.89;100.00
25238;BME280;13185;50.872;5.306;2023-04-01T08:32:16;99490.38;;;8.88;100.00
25238;BME280;13185;50.872;5.306;2023-04-01T08:34:47;99497.41;;;8.89;100.00
25238;BME280;13185;50.872;5.306;2023-04-01T08:37:30;99500.09;;;8.89;100.00
25238;BME280;13185;50.872;5.306;2023-04-01T08:40:02;99498.25;;;8.89;100.00
25238;BME280;13185;50.872;5.306;2023-04-01T08:42:55;99499.09;;;8.90;100.00
25238;BME280;13185;50.872;5.306;2023-04-01T08:45:48;99513.06;;;8.93;100.00
25238;BME280;13185;50.872;5.306;2023-04-01T09:01:55;99521.34;;;9.13;100.00
25238;BME280;13185;50.872;5.306;2023-04-01T09:14:31;99531.78;;;9.16;100.00
25238;BME280;13185;50.872;5.306;2023-04-01T09:17:43;99542.38;;;9.17;100.00
25238;BME280;13185;50.872;5.306;2023-04-01T09:20:52;99539.59;;;9.19;100.00
25238;BME280;13185;50.872;5.306;2023-04-01T09:29:11;99545.28;;;9.14;100.00
25238;BME280;13185;50.872;5.306;2023-04-01T09:35:19;99548.47;;;9.19;100.00
25238;BME280;13185;50.872;5.306;2023-04-01T09:51:44;99556.25;;;9.77;100.00
25238;BME280;13185;50.872;5.306;2023-04-01T09:57:18;99564.38;;;9.87;100.00
25238;BME280;13185;50.872;5.306;2023-04-01T10:11:10;99590.72;;;9.70;100.00
25238;BME280;13185;50.872;5.306;2023-04-01T10:16:40;99588.66;;;9.74;100.00
25238;BME280;13185;50.872;5.306;2023-04-01T10:30:38;99601.28;;;9.83;100.00
25238;BME280;13185;50.872;5.306;2023-04-01T10:44:26;99610.53;;;9.90;100.00
25238;BME280;13185;50.872;5.306;2023-04-01T10:56:29;99626.69;;;9.89;100.00
25238;BME280;13185;50.872;5.306;2023-04-01T10:59:49;99620.25;;;9.91;100.00
25238;BME280;13185;50.872;5.306;2023-04-01T11:03:11;99620.25;;;9.91;100.00
25238;BME280;13185;50.872;5.306;2023-04-01T11:06:30;99617.47;;;9.93;100.00
25238;BME280;13185;50.872;5.306;2023-04-01T11:09:06;99629.75;;;9.84;100.00
25238;BME280;13185;50.872;5.306;2023-04-01T11:23:13;99638.78;;;9.83;100.00
25238;BME280;13185;50.872;5.306;2023-04-01T11:37:36;99650.78;;;10.11;100.00
25238;BME280;13185;50.872;5.306;2023-04-01T11:40:37;99656.13;;;10.11;100.00
25238;BME280;13185;50.872;5.306;2023-04-01T11:43:46;99654.06;;;10.15;100.00
25238;BME280;13185;50.872;5.306;2023-04-01T11:58:19;99673.25;;;10.20;100.00
25238;BME280;13185;50.872;5.306;2023-04-01T12:01:14;99688.34;;;10.21;100.00
25238;BME280;13185;50.872;5.306;2023-04-01T12:19:54;99701.88;;;10.30;100.00
25238;BME280;13185;50.872;5.306;2023-04-01T12:22:27;99716.28;;;10.29;100.00
25238;BME280;13185;50.872;5.306;2023-04-01T12:30:02;99710.88;;;10.40;100.00
25238;BME280;13185;50.872;5.306;2023-04-01T12:32:40;99724.50;;;10.49;100.00
25238;BME280;13185;50.872;5.306;2023-04-01T12:43:12;99734.97;;;10.52;100.00
25238;BME280;13185;50.872;5.306;2023-04-01T12:57:26;99741.84;;;10.33;100.00
25238;BME280;13185;50.872;5.306;2023-04-01T13:08:59;99750.84;;;10.21;100.00
25238;BME280;13185;50.872;5.306;2023-04-01T13:28:25;99769.00;;;10.06;100.00
25238;BME280;13185;50.872;5.306;2023-04-01T13:31:02;99772.28;;;10.10;100.00
25238;BME280;13185;50.872;5.306;2023-04-01T13:34:10;99776.44;;;10.14;100.00
25238;BME280;13185;50.872;5.306;2023-04-01T13:40:05;99781.66;;;10.16;100.00
25238;BME280;13185;50.872;5.306;2023-04-01T13:42:48;99794.09;;;10.17;100.00
25238;BME280;13185;50.872;5.306;2023-04-01T13:45:21;99788.00;;;10.15;100.00
25238;BME280;13185;50.872;5.306;2023-04-01T13:58:58;99785.69;;;10.44;100.00
25238;BME280;13185;50.872;5.306;2023-04-01T14:01:49;99793.75;;;10.44;100.00
25238;BME280;13185;50.872;5.306;2023-04-01T14:07:11;99802.66;;;10.33;100.00
25238;BME280;13185;50.872;5.306;2023-04-01T14:10:04;99801.91;;;10.31;100.00
25238;BME280;13185;50.872;5.306;2023-04-01T14:20:36;99822.88;;;10.26;100.00
25238;BME280;13185;50.872;5.306;2023-04-01T14:40:14;99839.03;;;10.02;100.00
25238;BME280;13185;50.872;5.306;2023-04-01T14:45:42;99841.94;;;9.99;100.00
25238;BME280;13185;50.872;5.306;2023-04-01T14:48:32;99842.31;;;10.05;100.00
25238;BME280;13185;50.872;5.306;2023-04-01T14:51:20;99845.72;;;10.07;100.00
25238;BME280;13185;50.872;5.306;2023-04-01T14:54:02;99843.16;;;10.06;100.00
25238;BME280;13185;50.872;5.306;2023-04-01T14:56:49;99847.66;;;10.05;100.00
25238;BME280;13185;50.872;5.306;2023-04-01T15:02:14;99853.63;;;9.98;100.00
25238;BME280;13185;50.872;5.306;2023-04-01T15:10:09;99862.50;;;9.98;100.00
25238;BME280;13185;50.872;5.306;2023-04-01T15:18:33;99869.22;;;10.04;100.00
25238;BME280;13185;50.872;5.306;2023-04-01T15:33:09;99882.22;;;9.97;100.00
25238;BME280;13185;50.872;5.306;2023-04-01T15:35:46;99886.16;;;10.04;100.00
25238;BME280;13185;50.872;5.306;2023-04-01T15:38:39;99887.13;;;10.03;100.00
25238;BME280;13185;50.872;5.306;2023-04-01T15:43:48;99892.97;;;10.08;100.00
25238;BME280;13185;50.872;5.306;2023-04-01T15:46:31;99902.09;;;10.06;100.00
25238;BME280;13185;50.872;5.306;2023-04-01T15:49:03;99898.94;;;10.01;100.00
25238;BME280;13185;50.872;5.306;2023-04-01T16:11:11;99913.06;;;10.14;100.00
25238;BME280;13185;50.872;5.306;2023-04-01T16:19:50;99929.06;;;10.27;100.00
25238;BME280;13185;50.872;5.306;2023-04-01T16:22:24;99932.72;;;10.26;100.00
25238;BME280;13185;50.872;5.306;2023-04-01T16:28:02;99933.72;;;10.25;100.00
25238;BME280;13185;50.872;5.306;2023-04-01T16:30:35;99933.03;;;10.21;100.00
25238;BME280;13185;50.872;5.306;2023-04-01T16:41:18;99953.22;;;9.92;100.00
25238;BME280;13185;50.872;5.306;2023-04-01T16:43:56;99956.94;;;9.89;100.00
25238;BME280;13185;50.872;5.306;2023-04-01T16:46:37;99952.94;;;9.83;100.00
25238;BME280;13185;50.872;5.306;2023-04-01T16:51:54;99968.59;;;9.77;100.00
25238;BME280;13185;50.872;5.306;2023-04-01T16:59:47;99976.03;;;9.73;100.00
25238;BME280;13185;50.872;5.306;2023-04-01T17:02:33;99977.25;;;9.69;100.00
25238;BME280;13185;50.872;5.306;2023-04-01T17:05:05;99982.06;;;9.64;100.00
25238;BME280;13185;50.872;5.306;2023-04-01T17:08:05;99986.91;;;9.59;100.00
25238;BME280;13185;50.872;5.306;2023-04-01T17:13:18;99989.31;;;9.51;100.00
25238;BME280;13185;50.872;5.306;2023-04-01T17:18:56;100003.25;;;9.43;100.00
25238;BME280;13185;50.872;5.306;2023-04-01T17:40:44;100023.34;;;9.12;100.00
25238;BME280;13185;50.872;5.306;2023-04-01T17:48:41;100041.88;;;9.03;100.00
25238;BME280;13185;50.872;5.306;2023-04-01T17:51:46;100040.50;;;8.97;100.00
25238;BME280;13185;50.872;5.306;2023-04-01T17:57:25;100053.56;;;8.89;100.00
25238;BME280;13185;50.872;5.306;2023-04-01T18:08:17;100062.66;;;8.86;100.00
25238;BME280;13185;50.872;5.306;2023-04-01T18:13:36;100069.38;;;8.79;100.00
25238;BME280;13185;50.872;5.306;2023-04-01T18:16:28;100072.06;;;8.79;100.00
25238;BME280;13185;50.872;5.306;2023-04-01T18:23:59;100086.59;;;8.75;100.00
25238;BME280;13185;50.872;5.306;2023-04-01T18:26:32;100089.47;;;8.72;100.00
25238;BME280;13185;50.872;5.306;2023-04-01T18:29:13;100091.31;;;8.72;100.00
25238;BME280;13185;50.872;5.306;2023-04-01T18:31:48;100098.34;;;8.73;100.00
25238;BME280;13185;50.872;5.306;2023-04-01T18:37:22;100109.16;;;8.71;100.00
25238;BME280;13185;50.872;5.306;2023-04-01T18:40:15;100109.28;;;8.70;100.00
25238;BME280;13185;50.872;5.306;2023-04-01T18:45:37;100114.94;;;8.65;100.00
25238;BME280;13185;50.872;5.306;2023-04-01T18:48:33;100115.81;;;8.65;100.00
25238;BME280;13185;50.872;5.306;2023-04-01T18:51:11;100114.84;;;8.66;100.00
25238;BME280;13185;50.872;5.306;2023-04-01T18:53:49;100121.22;;;8.64;100.00
25238;BME280;13185;50.872;5.306;2023-04-01T18:56:36;100128.38;;;8.63;100.00
25238;BME280;13185;50.872;5.306;2023-04-01T18:59:11;100128.31;;;8.65;100.00
25238;BME280;13185;50.872;5.306;2023-04-01T19:04:56;100126.56;;;8.64;100.00
25238;BME280;13185;50.872;5.306;2023-04-01T19:09:51;100139.09;;;8.63;100.00
25238;BME280;13185;50.872;5.306;2023-04-01T19:15:29;100145.59;;;8.59;100.00
25238;BME280;13185;50.872;5.306;2023-04-01T19:21:01;100153.75;;;8.58;100.00
25238;BME280;13185;50.872;5.306;2023-04-01T19:26:39;100154.59;;;8.58;100.00
25238;BME280;13185;50.872;5.306;2023-04-01T19:29:25;100159.84;;;8.60;100.00
25238;BME280;13185;50.872;5.306;2023-04-01T19:32:13;100160.78;;;8.59;100.00
25238;BME280;13185;50.872;5.306;2023-04-01T19:34:57;100160.03;;;8.57;100.00
25238;BME280;13185;50.872;5.306;2023-04-01T19:37:51;100164.53;;;8.56;100.00
25238;BME280;13185;50.872;5.306;2023-04-01T19:43:19;100164.31;;;8.59;100.00
25238;BME280;13185;50.872;5.306;2023-04-01T19:48:56;100169.78;;;8.58;100.00
25238;BME280;13185;50.872;5.306;2023-04-01T19:51:34;100173.41;;;8.57;100.00
25238;BME280;13185;50.872;5.306;2023-04-01T20:02:33;100178.19;;;8.52;100.00
25238;BME280;13185;50.872;5.306;2023-04-01T20:10:52;100198.44;;;8.56;100.00
25238;BME280;13185;50.872;5.306;2023-04-01T20:13:35;100199.38;;;8.55;100.00
25238;BME280;13185;50.872;5.306;2023-04-01T20:16:07;100204.63;;;8.56;100.00
25238;BME280;13185;50.872;5.306;2023-04-01T20:18:39;100210.94;;;8.55;100.00
25238;BME280;13185;50.872;5.306;2023-04-01T20:26:35;100221.19;;;8.61;100.00
25238;BME280;13185;50.872;5.306;2023-04-01T20:31:42;100232.00;;;8.60;100.00
25238;BME280;13185;50.872;5.306;2023-04-01T20:39:54;100240.88;;;8.60;100.00
25238;BME280;13185;50.872;5.306;2023-04-01T20:42:33;100247.06;;;8.61;100.00
25238;BME280;13185;50.872;5.306;2023-04-01T20:45:14;100245.25;;;8.61;100.00
25238;BME280;13185;50.872;5.306;2023-04-01T20:50:28;100253.94;;;8.65;100.00
25238;BME280;13185;50.872;5.306;2023-04-01T20:53:22;100270.84;;;8.65;100.00
25238;BME280;13185;50.872;5.306;2023-04-01T20:56:06;100272.44;;;8.68;100.00
25238;BME280;13185;50.872;5.306;2023-04-01T21:01:15;100277.78;;;8.68;100.00
25238;BME280;13185;50.872;5.306;2023-04-01T21:03:54;100282.06;;;8.71;100.00
25238;BME280;13185;50.872;5.306;2023-04-01T21:12:30;100296.88;;;8.76;100.00
25238;BME280;13185;50.872;5.306;2023-04-01T21:17:33;100299.22;;;8.81;100.00
25238;BME280;13185;50.872;5.306;2023-04-01T21:37:26;100337.66;;;8.92;100.00
25238;BME280;13185;50.872;5.306;2023-04-01T21:45:56;100351.63;;;8.83;100.00
25238;BME280;13185;50.872;5.306;2023-04-01T21:51:52;100354.63;;;8.79;100.00
25238;BME280;13185;50.872;5.306;2023-04-01T22:07:59;100388.81;;;8.74;100.00
25238;BME280;13185;50.872;5.306;2023-04-01T22:13:32;100397.78;;;8.73;100.00
25238;BME280;13185;50.872;5.306;2023-04-01T22:16:05;100401.31;;;8.73;100.00
25238;BME280;13185;50.872;5.306;2023-04-01T22:18:41;100415.84;;;8.69;100.00
25238;BME280;13185;50.872;5.306;2023-04-01T22:21:24;100415.25;;;8.64;100.00
25238;BME280;13185;50.872;5.306;2023-04-01T22:29:24;100431.59;;;8.59;100.00
25238;BME280;13185;50.872;5.306;2023-04-01T22:31:57;100429.78;;;8.60;100.00
25238;BME280;13185;50.872;5.306;2023-04-01T22:34:37;100431.72;;;8.58;100.00
25238;BME280;13185;50.872;5.306;2023-04-01T22:37:29;100440.78;;;8.55;100.00
25238;BME280;13185;50.872;5.306;2023-04-01T22:42:46;100444.97;;;8.59;100.00
25238;BME280;13185;50.872;5.306;2023-04-01T22:55:48;100468.94;;;8.47;100.00
25238;BME280;13185;50.872;5.306;2023-04-01T22:58:19;100484.13;;;8.46;100.00
25238;BME280;13185;50.872;5.306;2023-04-01T23:00:48;100480.75;;;8.43;100.00
25238;BME280;13185;50.872;5.306;2023-04-01T23:03:21;100494.31;;;8.39;100.00
25238;BME280;13185;50.872;5.306;2023-04-01T23:05:55;100495.59;;;8.32;100.00
25238;BME280;13185;50.872;5.306;2023-04-01T23:11:12;100506.78;;;8.25;100.00
25238;BME280;13185;50.872;5.306;2023-04-01T23:16:41;100511.28;;;8.24;100.00
25238;BME280;13185;50.872;5.306;2023-04-01T23:19:17;100514.00;;;8.23;100.00
25238;BME280;13185;50.872;5.306;2023-04-01T23:21:53;100518.44;;;8.24;100.00
25238;BME280;13185;50.872;5.306;2023-04-01T23:24:33;100527.38;;;8.23;100.00
25238;BME280;13185;50.872;5.306;2023-04-01T23:27:28;100532.91;;;8.20;100.00